sensor_id;sensor_type;location;lat;lon;timestamp;pressure;altitude;pressure_sealevel;temperature;humidity
11345;BME280;5727;42.600;23.028;2023-03-25T00:02:04;93398.81;;;9.39;100.00
11345;BME280;5727;42.600;23.028;2023-03-25T00:04:33;93389.84;;;9.40;100.00
11345;BME280;5727;42.600;23.028;2023-03-25T00:07:04;93390.53;;;9.37;100.00
11345;BME280;5727;42.600;23.028;2023-03-25T00:09:32;93386.69;;;9.34;100.00
11345;BME280;5727;42.600;23.028;2023-03-25T00:11:58;93381.25;;;9.27;100.00
11345;BME280;5727;42.600;23.028;2023-03-25T00:14:25;93382.97;;;9.23;100.00
11345;BME280;5727;42.600;23.028;2023-03-25T00:16:52;93379.16;;;9.20;100.00
11345;BME280;5727;42.600;23.028;2023-03-25T00:19:19;93385.56;;;9.11;100.00
11345;BME280;5727;42.600;23.028;2023-03-25T00:21:46;93382.84;;;9.07;100.00
11345;BME280;5727;42.600;23.028;2023-03-25T00:24:16;93383.06;;;9.02;100.00
11345;BME280;5727;42.600;23.028;2023-03-25T00:26:43;93382.06;;;9.07;100.00
11345;BME280;5727;42.600;23.028;2023-03-25T00:29:10;93376.53;;;9.08;100.00
11345;BME280;5727;42.600;23.028;2023-03-25T00:31:37;93376.38;;;8.93;100.00
11345;BME280;5727;42.600;23.028;2023-03-25T00:34:05;93381.44;;;8.77;100.00
11345;BME280;5727;42.600;23.028;2023-03-25T00:36:32;93373.78;;;8.72;100.00
11345;BME280;5727;42.600;23.028;2023-03-25T00:39:02;93377.94;;;8.73;100.00
11345;BME280;5727;42.600;23.028;2023-03-25T00:41:30;93387.06;;;8.67;100.00
11345;BME280;5727;42.600;23.028;2023-03-25T00:44:00;93375.09;;;8.66;100.00
11345;BME280;5727;42.600;23.028;2023-03-25T00:46:29;93381.06;;;8.67;100.00
11345;BME280;5727;42.600;23.028;2023-03-25T00:48:57;93382.66;;;8.59;100.00
11345;BME280;5727;42.600;23.028;2023-03-25T00:51:25;93376.06;;;8.62;100.00
11345;BME280;5727;42.600;23.028;2023-03-25T00:53:53;93367.00;;;8.59;100.00
11345;BME280;5727;42.600;23.028;2023-03-25T00:56:22;93368.94;;;8.29;100.00
11345;BME280;5727;42.600;23.028;2023-03-25T00:58:52;93368.53;;;8.19;100.00
11345;BME280;5727;42.600;23.028;2023-03-25T01:01:20;93361.75;;;8.26;100.00
11345;BME280;5727;42.600;23.028;2023-03-25T01:03:51;93362.19;;;8.28;100.00
11345;BME280;5727;42.600;23.028;2023-03-25T01:06:23;93352.69;;;8.24;100.00
11345;BME280;5727;42.600;23.028;2023-03-25T01:08:53;93344.78;;;8.12;100.00
11345;BME280;5727;42.600;23.028;2023-03-25T01:11:22;93351.59;;;8.04;100.00
11345;BME280;5727;42.600;23.028;2023-03-25T01:13:53;93364.00;;;8.07;100.00
11345;BME280;5727;42.600;23.028;2023-03-25T01:16:20;93349.88;;;8.08;100.00
11345;BME280;5727;42.600;23.028;2023-03-25T01:18:47;93346.63;;;8.11;100.00
11345;BME280;5727;42.600;23.028;2023-03-25T01:21:14;93337.09;;;8.15;100.00
11345;BME280;5727;42.600;23.028;2023-03-25T01:23:40;93333.38;;;8.16;100.00
11345;BME280;5727;42.600;23.028;2023-03-25T01:26:07;93337.53;;;8.17;100.00
11345;BME280;5727;42.600;23.028;2023-03-25T01:28:34;93340.53;;;8.07;100.00
11345;BME280;5727;42.600;23.028;2023-03-25T01:31:04;93334.69;;;8.10;100.00
11345;BME280;5727;42.600;23.028;2023-03-25T01:33:32;93330.53;;;8.09;100.00
11345;BME280;5727;42.600;23.028;2023-03-25T01:35:59;93322.25;;;8.07;100.00
11345;BME280;5727;42.600;23.028;2023-03-25T01:38:26;93327.69;;;8.02;100.00
11345;BME280;5727;42.600;23.028;2023-03-25T01:40:53;93324.28;;;8.02;100.00
11345;BME280;5727;42.600;23.028;2023-03-25T01:43:20;93336.66;;;7.64;100.00
11345;BME280;5727;42.600;23.028;2023-03-25T01:45:48;93332.78;;;7.70;100.00
11345;BME280;5727;42.600;23.028;2023-03-25T01:48:20;93315.13;;;7.75;100.00
11345;BME280;5727;42.600;23.028;2023-03-25T01:50:52;93321.38;;;7.54;100.00
11345;BME280;5727;42.600;23.028;2023-03-25T01:53:19;93318.41;;;7.64;100.00
11345;BME280;5727;42.600;23.028;2023-03-25T01:55:46;93319.19;;;7.64;100.00
11345;BME280;5727;42.600;23.028;2023-03-25T01:58:16;93313.66;;;7.66;100.00
11345;BME280;5727;42.600;23.028;2023-03-25T02:00:44;93315.16;;;7.67;100.00
11345;BME280;5727;42.600;23.028;2023-03-25T02:03:12;93307.78;;;7.69;100.00
11345;BME280;5727;42.600;23.028;2023-03-25T02:05:46;93320.38;;;7.67;100.00
11345;BME280;5727;42.600;23.028;2023-03-25T02:08:15;93314.41;;;7.66;100.00
11345;BME280;5727;42.600;23.028;2023-03-25T02:10:44;93321.66;;;7.61;100.00
11345;BME280;5727;42.600;23.028;2023-03-25T02:13:11;93317.06;;;7.58;100.00
11345;BME280;5727;42.600;23.028;2023-03-25T02:16:06;93316.34;;;7.19;100.00
11345;BME280;5727;42.600;23.028;2023-03-25T02:18:42;93313.72;;;7.19;100.00
11345;BME280;5727;42.600;23.028;2023-03-25T02:21:58;93311.00;;;7.07;100.00
11345;BME280;5727;42.600;23.028;2023-03-25T02:24:43;93316.41;;;7.02;100.00
11345;BME280;5727;42.600;23.028;2023-03-25T02:27:22;93311.66;;;7.04;100.00
11345;BME280;5727;42.600;23.028;2023-03-25T02:38:59;93302.88;;;6.71;100.00
11345;BME280;5727;42.600;23.028;2023-03-25T02:41:36;93302.84;;;6.80;100.00
11345;BME280;5727;42.600;23.028;2023-03-25T02:44:10;93311.88;;;6.82;100.00
11345;BME280;5727;42.600;23.028;2023-03-25T02:46:42;93302.66;;;6.93;100.00
11345;BME280;5727;42.600;23.028;2023-03-25T02:49:15;93298.03;;;6.99;100.00
11345;BME280;5727;42.600;23.028;2023-03-25T02:51:45;93302.47;;;6.98;100.00
11345;BME280;5727;42.600;23.028;2023-03-25T02:54:18;93306.78;;;6.94;100.00
11345;BME280;5727;42.600;23.028;2023-03-25T02:56:48;93302.34;;;6.86;100.00
11345;BME280;5727;42.600;23.028;2023-03-25T02:59:22;93297.28;;;6.90;100.00
11345;BME280;5727;42.600;23.028;2023-03-25T03:01:49;93287.91;;;6.97;100.00
11345;BME280;5727;42.600;23.028;2023-03-25T03:04:16;93289.91;;;7.00;100.00
11345;BME280;5727;42.600;23.028;2023-03-25T03:06:42;93290.69;;;7.01;100.00
11345;BME280;5727;42.600;23.028;2023-03-25T03:09:21;93300.78;;;7.02;100.00
11345;BME280;5727;42.600;23.028;2023-03-25T03:12:03;93304.63;;;7.05;100.00
11345;BME280;5727;42.600;23.028;2023-03-25T03:14:43;93290.19;;;7.07;100.00
11345;BME280;5727;42.600;23.028;2023-03-25T03:17:18;93296.16;;;7.08;100.00
11345;BME280;5727;42.600;23.028;2023-03-25T03:19:49;93299.22;;;7.10;100.00
11345;BME280;5727;42.600;23.028;2023-03-25T03:22:28;93295.84;;;7.09;100.00
11345;BME280;5727;42.600;23.028;2023-03-25T03:25:04;93296.63;;;7.01;100.00
11345;BME280;5727;42.600;23.028;2023-03-25T03:27:34;93294.81;;;7.02;100.00
11345;BME280;5727;42.600;23.028;2023-03-25T03:30:07;93287.13;;;7.05;100.00
11345;BME280;5727;42.600;23.028;2023-03-25T03:32:38;93284.66;;;7.09;100.00
11345;BME280;5727;42.600;23.028;2023-03-25T03:35:10;93292.19;;;7.10;100.00
11345;BME280;5727;42.600;23.028;2023-03-25T03:37:42;93292.66;;;7.04;100.00
11345;BME280;5727;42.600;23.028;2023-03-25T03:40:15;93294.31;;;7.08;100.00
11345;BME280;5727;42.600;23.028;2023-03-25T03:42:45;93300.66;;;6.99;100.00
11345;BME280;5727;42.600;23.028;2023-03-25T03:45:18;93308.13;;;7.00;100.00
11345;BME280;5727;42.600;23.028;2023-03-25T03:47:51;93299.69;;;7.03;100.00
11345;BME280;5727;42.600;23.028;2023-03-25T03:50:23;93299.25;;;7.01;100.00
11345;BME280;5727;42.600;23.028;2023-03-25T03:52:58;93312.16;;;6.89;100.00
11345;BME280;5727;42.600;23.028;2023-03-25T03:55:31;93300.06;;;6.85;100.00
11345;BME280;5727;42.600;23.028;2023-03-25T03:58:06;93306.06;;;6.85;100.00
11345;BME280;5727;42.600;23.028;2023-03-25T04:00:37;93310.16;;;6.86;100.00
11345;BME280;5727;42.600;23.028;2023-03-25T04:03:11;93307.28;;;6.79;100.00
11345;BME280;5727;42.600;23.028;2023-03-25T04:05:42;93311.59;;;6.75;100.00
11345;BME280;5727;42.600;23.028;2023-03-25T04:08:18;93307.47;;;6.74;100.00
11345;BME280;5727;42.600;23.028;2023-03-25T04:10:52;93302.25;;;6.74;100.00
11345;BME280;5727;42.600;23.028;2023-03-25T04:13:29;93308.06;;;6.71;100.00
11345;BME280;5727;42.600;23.028;2023-03-25T04:15:59;93303.31;;;6.73;100.00
11345;BME280;5727;42.600;23.028;2023-03-25T04:18:26;93316.34;;;6.73;100.00
11345;BME280;5727;42.600;23.028;2023-03-25T04:20:53;93318.31;;;6.76;100.00
11345;BME280;5727;42.600;23.028;2023-03-25T04:23:20;93305.75;;;6.78;100.00
11345;BME280;5727;42.600;23.028;2023-03-25T04:25:48;93301.44;;;6.82;100.00
11345;BME280;5727;42.600;23.028;2023-03-25T04:28:17;93311.56;;;6.84;100.00
11345;BME280;5727;42.600;23.028;2023-03-25T04:30:44;93309.72;;;6.84;100.00
11345;BME280;5727;42.600;23.028;2023-03-25T04:33:13;93306.81;;;6.86;100.00
11345;BME280;5727;42.600;23.028;2023-03-25T04:35:40;93307.25;;;6.88;100.00
11345;BME280;5727;42.600;23.028;2023-03-25T04:38:07;93306.50;;;6.87;100.00
11345;BME280;5727;42.600;23.028;2023-03-25T04:40:34;93310.03;;;6.91;100.00
11345;BME280;5727;42.600;23.028;2023-03-25T04:43:02;93302.81;;;6.88;100.00
11345;BME280;5727;42.600;23.028;2023-03-25T04:45:28;93310.63;;;6.88;100.00
11345;BME280;5727;42.600;23.028;2023-03-25T04:48:00;93312.00;;;6.94;100.00
11345;BME280;5727;42.600;23.028;2023-03-25T04:50:31;93312.44;;;6.96;100.00
11345;BME280;5727;42.600;23.028;2023-03-25T04:52:58;93303.53;;;6.97;100.00
11345;BME280;5727;42.600;23.028;2023-03-25T04:55:25;93310.09;;;7.03;100.00
11345;BME280;5727;42.600;23.028;2023-03-25T04:57:53;93308.59;;;7.02;100.00
11345;BME280;5727;42.600;23.028;2023-03-25T05:00:22;93315.22;;;6.91;100.00
11345;BME280;5727;42.600;23.028;2023-03-25T05:02:51;93312.31;;;6.93;100.00
11345;BME280;5727;42.600;23.028;2023-03-25T05:05:21;93313.22;;;6.97;100.00
11345;BME280;5727;42.600;23.028;2023-03-25T05:07:49;93318.31;;;6.85;100.00
11345;BME280;5727;42.600;23.028;2023-03-25T05:10:18;93325.50;;;6.79;100.00
11345;BME280;5727;42.600;23.028;2023-03-25T05:12:45;93324.72;;;6.87;100.00
11345;BME280;5727;42.600;23.028;2023-03-25T05:15:12;93323.19;;;6.95;100.00
11345;BME280;5727;42.600;23.028;2023-03-25T05:17:42;93321.34;;;6.95;100.00
11345;BME280;5727;42.600;23.028;2023-03-25T05:20:10;93317.31;;;7.06;100.00
11345;BME280;5727;42.600;23.028;2023-03-25T05:22:38;93316.06;;;7.12;100.00
11345;BME280;5727;42.600;23.028;2023-03-25T05:25:07;93311.56;;;7.21;100.00
11345;BME280;5727;42.600;23.028;2023-03-25T05:27:36;93312.88;;;7.07;100.00
11345;BME280;5727;42.600;23.028;2023-03-25T05:30:04;93320.53;;;7.03;100.00
11345;BME280;5727;42.600;23.028;2023-03-25T05:32:31;93323.19;;;6.95;100.00
11345;BME280;5727;42.600;23.028;2023-03-25T05:35:00;93317.97;;;6.86;100.00
11345;BME280;5727;42.600;23.028;2023-03-25T05:37:28;93319.34;;;7.01;100.00
11345;BME280;5727;42.600;23.028;2023-03-25T05:39:55;93324.50;;;7.09;100.00
11345;BME280;5727;42.600;23.028;2023-03-25T05:42:22;93324.69;;;7.04;100.00
11345;BME280;5727;42.600;23.028;2023-03-25T05:44:49;93327.44;;;6.99;100.00
11345;BME280;5727;42.600;23.028;2023-03-25T05:47:17;93333.91;;;6.93;100.00
11345;BME280;5727;42.600;23.028;2023-03-25T05:49:46;93331.19;;;6.81;100.00
11345;BME280;5727;42.600;23.028;2023-03-25T05:52:14;93320.91;;;6.85;100.00
11345;BME280;5727;42.600;23.028;2023-03-25T05:54:42;93326.38;;;7.00;100.00
11345;BME280;5727;42.600;23.028;2023-03-25T05:57:09;93314.88;;;7.01;100.00
11345;BME280;5727;42.600;23.028;2023-03-25T05:59:36;93314.84;;;7.10;100.00
11345;BME280;5727;42.600;23.028;2023-03-25T06:02:06;93317.38;;;7.27;100.00
11345;BME280;5727;42.600;23.028;2023-03-25T06:04:34;93320.09;;;7.39;100.00
11345;BME280;5727;42.600;23.028;2023-03-25T06:07:06;93318.97;;;7.49;100.00
11345;BME280;5727;42.600;23.028;2023-03-25T06:09:41;93319.47;;;7.63;100.00
11345;BME280;5727;42.600;23.028;2023-03-25T06:12:11;93317.31;;;7.65;100.00
11345;BME280;5727;42.600;23.028;2023-03-25T06:14:38;93314.09;;;7.68;100.00
11345;BME280;5727;42.600;23.028;2023-03-25T06:17:07;93317.09;;;7.78;100.00
11345;BME280;5727;42.600;23.028;2023-03-25T06:19:34;93314.63;;;7.82;100.00
11345;BME280;5727;42.600;23.028;2023-03-25T06:22:03;93317.28;;;7.94;100.00
11345;BME280;5727;42.600;23.028;2023-03-25T06:24:30;93321.19;;;8.08;100.00
11345;BME280;5727;42.600;23.028;2023-03-25T06:26:59;93318.94;;;8.19;100.00
11345;BME280;5727;42.600;23.028;2023-03-25T06:29:25;93320.56;;;8.32;100.00
11345;BME280;5727;42.600;23.028;2023-03-25T06:31:52;93319.31;;;8.50;100.00
11345;BME280;5727;42.600;23.028;2023-03-25T06:34:19;93321.28;;;8.53;100.00
11345;BME280;5727;42.600;23.028;2023-03-25T06:36:46;93321.84;;;8.59;100.00
11345;BME280;5727;42.600;23.028;2023-03-25T06:39:14;93324.38;;;8.67;100.00
11345;BME280;5727;42.600;23.028;2023-03-25T06:41:41;93326.72;;;8.81;100.00
11345;BME280;5727;42.600;23.028;2023-03-25T06:44:09;93323.25;;;8.89;100.00
11345;BME280;5727;42.600;23.028;2023-03-25T06:46:36;93322.59;;;8.92;100.00
11345;BME280;5727;42.600;23.028;2023-03-25T06:49:03;93331.34;;;9.08;100.00
11345;BME280;5727;42.600;23.028;2023-03-25T06:51:30;93323.97;;;9.22;100.00
11345;BME280;5727;42.600;23.028;2023-03-25T06:53:56;93320.28;;;9.35;100.00
11345;BME280;5727;42.600;23.028;2023-03-25T06:56:23;93328.44;;;9.58;100.00
11345;BME280;5727;42.600;23.028;2023-03-25T06:58:50;93325.25;;;9.76;100.00
11345;BME280;5727;42.600;23.028;2023-03-25T07:01:18;93321.22;;;9.91;100.00
11345;BME280;5727;42.600;23.028;2023-03-25T07:03:45;93321.53;;;10.13;100.00
11345;BME280;5727;42.600;23.028;2023-03-25T07:06:15;93329.22;;;10.22;100.00
11345;BME280;5727;42.600;23.028;2023-03-25T07:08:42;93336.16;;;10.42;100.00
11345;BME280;5727;42.600;23.028;2023-03-25T07:11:09;93334.16;;;10.51;100.00
11345;BME280;5727;42.600;23.028;2023-03-25T07:13:37;93332.91;;;10.61;100.00
11345;BME280;5727;42.600;23.028;2023-03-25T07:16:05;93329.88;;;10.86;100.00
11345;BME280;5727;42.600;23.028;2023-03-25T07:18:33;93326.94;;;11.03;100.00
11345;BME280;5727;42.600;23.028;2023-03-25T07:21:00;93328.81;;;11.19;100.00
11345;BME280;5727;42.600;23.028;2023-03-25T07:23:27;93325.00;;;11.32;100.00
11345;BME280;5727;42.600;23.028;2023-03-25T07:25:54;93325.84;;;11.51;100.00
11345;BME280;5727;42.600;23.028;2023-03-25T07:28:21;93325.50;;;11.53;100.00
11345;BME280;5727;42.600;23.028;2023-03-25T07:30:48;93328.31;;;11.75;100.00
11345;BME280;5727;42.600;23.028;2023-03-25T07:33:15;93324.81;;;11.87;100.00
11345;BME280;5727;42.600;23.028;2023-03-25T07:35:43;93321.53;;;12.09;100.00
11345;BME280;5727;42.600;23.028;2023-03-25T07:38:10;93317.06;;;12.29;100.00
11345;BME280;5727;42.600;23.028;2023-03-25T07:40:36;93313.44;;;12.52;100.00
11345;BME280;5727;42.600;23.028;2023-03-25T07:43:03;93312.34;;;12.76;100.00
11345;BME280;5727;42.600;23.028;2023-03-25T07:45:30;93304.91;;;13.01;100.00
11345;BME280;5727;42.600;23.028;2023-03-25T07:47:59;93305.72;;;13.24;100.00
11345;BME280;5727;42.600;23.028;2023-03-25T07:50:25;93309.72;;;13.37;100.00
11345;BME280;5727;42.600;23.028;2023-03-25T07:52:54;93303.25;;;13.57;100.00
11345;BME280;5727;42.600;23.028;2023-03-25T07:55:20;93303.97;;;13.80;100.00
11345;BME280;5727;42.600;23.028;2023-03-25T07:57:47;93305.28;;;13.93;100.00
11345;BME280;5727;42.600;23.028;2023-03-25T08:00:14;93298.09;;;14.20;100.00
11345;BME280;5727;42.600;23.028;2023-03-25T08:02:41;93295.44;;;14.42;96.04
11345;BME280;5727;42.600;23.028;2023-03-25T08:05:08;93289.97;;;14.58;94.10
11345;BME280;5727;42.600;23.028;2023-03-25T08:07:35;93291.28;;;14.75;92.51
11345;BME280;5727;42.600;23.028;2023-03-25T08:10:03;93283.06;;;14.83;91.21
11345;BME280;5727;42.600;23.028;2023-03-25T08:12:30;93297.34;;;14.79;91.15
11345;BME280;5727;42.600;23.028;2023-03-25T08:14:57;93289.31;;;15.05;90.23
11345;BME280;5727;42.600;23.028;2023-03-25T08:17:24;93277.75;;;15.16;90.03
11345;BME280;5727;42.600;23.028;2023-03-25T08:19:51;93267.91;;;15.13;91.13
11345;BME280;5727;42.600;23.028;2023-03-25T08:22:17;93265.25;;;15.10;92.25
11345;BME280;5727;42.600;23.028;2023-03-25T08:24:44;93271.75;;;15.19;91.10
11345;BME280;5727;42.600;23.028;2023-03-25T08:27:13;93267.56;;;15.15;91.20
11345;BME280;5727;42.600;23.028;2023-03-25T08:29:39;93256.97;;;15.11;89.27
11345;BME280;5727;42.600;23.028;2023-03-25T08:32:06;93251.84;;;15.29;89.25
11345;BME280;5727;42.600;23.028;2023-03-25T08:34:33;93250.50;;;15.45;86.82
11345;BME280;5727;42.600;23.028;2023-03-25T08:37:04;93255.47;;;15.54;85.96
11345;BME280;5727;42.600;23.028;2023-03-25T08:39:32;93242.97;;;15.51;84.68
11345;BME280;5727;42.600;23.028;2023-03-25T08:42:04;93246.13;;;15.67;81.84
11345;BME280;5727;42.600;23.028;2023-03-25T08:44:32;93255.97;;;15.77;80.98
11345;BME280;5727;42.600;23.028;2023-03-25T08:46:59;93244.03;;;15.97;79.77
11345;BME280;5727;42.600;23.028;2023-03-25T08:49:25;93240.31;;;16.12;76.46
11345;BME280;5727;42.600;23.028;2023-03-25T08:51:52;93237.00;;;16.29;71.36
11345;BME280;5727;42.600;23.028;2023-03-25T08:54:19;93238.94;;;16.43;68.45
11345;BME280;5727;42.600;23.028;2023-03-25T08:56:45;93232.16;;;16.45;70.68
11345;BME280;5727;42.600;23.028;2023-03-25T08:59:12;93224.31;;;16.63;61.03
11345;BME280;5727;42.600;23.028;2023-03-25T09:01:40;93215.63;;;16.66;55.69
11345;BME280;5727;42.600;23.028;2023-03-25T09:04:07;93210.72;;;16.65;57.45
11345;BME280;5727;42.600;23.028;2023-03-25T09:06:34;93202.06;;;16.71;55.41
11345;BME280;5727;42.600;23.028;2023-03-25T09:09:01;93207.34;;;16.75;51.98
11345;BME280;5727;42.600;23.028;2023-03-25T09:11:29;93207.72;;;16.73;52.77
11345;BME280;5727;42.600;23.028;2023-03-25T09:13:56;93199.78;;;16.84;47.66
11345;BME280;5727;42.600;23.028;2023-03-25T09:16:23;93199.03;;;16.87;52.01
11345;BME280;5727;42.600;23.028;2023-03-25T09:18:51;93197.53;;;16.96;50.96
11345;BME280;5727;42.600;23.028;2023-03-25T09:21:18;93197.56;;;17.03;51.05
11345;BME280;5727;42.600;23.028;2023-03-25T09:23:45;93197.53;;;17.14;50.68
11345;BME280;5727;42.600;23.028;2023-03-25T09:26:12;93195.28;;;17.23;51.88
11345;BME280;5727;42.600;23.028;2023-03-25T09:28:38;93197.16;;;17.40;48.86
11345;BME280;5727;42.600;23.028;2023-03-25T09:31:06;93196.41;;;17.43;47.49
11345;BME280;5727;42.600;23.028;2023-03-25T09:33:34;93197.94;;;17.51;47.89
11345;BME280;5727;42.600;23.028;2023-03-25T09:36:02;93200.56;;;17.37;48.40
11345;BME280;5727;42.600;23.028;2023-03-25T09:38:29;93196.00;;;17.45;48.78
11345;BME280;5727;42.600;23.028;2023-03-25T09:40:56;93195.66;;;17.53;49.28
11345;BME280;5727;42.600;23.028;2023-03-25T09:43:36;93189.97;;;17.62;48.46
11345;BME280;5727;42.600;23.028;2023-03-25T09:46:06;93193.00;;;17.60;48.06
11345;BME280;5727;42.600;23.028;2023-03-25T09:48:36;93182.41;;;17.71;47.32
11345;BME280;5727;42.600;23.028;2023-03-25T09:51:08;93190.38;;;17.67;46.60
11345;BME280;5727;42.600;23.028;2023-03-25T09:53:41;93184.66;;;17.69;47.41
11345;BME280;5727;42.600;23.028;2023-03-25T09:56:13;93188.44;;;17.75;46.54
11345;BME280;5727;42.600;23.028;2023-03-25T09:58:43;93188.44;;;17.78;46.31
11345;BME280;5727;42.600;23.028;2023-03-25T10:01:18;93177.03;;;17.92;46.85
11345;BME280;5727;42.600;23.028;2023-03-25T10:03:55;93170.88;;;18.19;47.78
11345;BME280;5727;42.600;23.028;2023-03-25T10:06:24;93169.66;;;18.35;46.77
11345;BME280;5727;42.600;23.028;2023-03-25T10:09:08;93165.09;;;18.49;45.12
11345;BME280;5727;42.600;23.028;2023-03-25T10:11:46;93156.66;;;18.65;45.07
11345;BME280;5727;42.600;23.028;2023-03-25T10:14:19;93157.03;;;18.67;44.63
11345;BME280;5727;42.600;23.028;2023-03-25T10:17:00;93141.13;;;18.67;43.79
11345;BME280;5727;42.600;23.028;2023-03-25T10:19:43;93142.44;;;18.92;45.57
11345;BME280;5727;42.600;23.028;2023-03-25T10:22:18;93138.47;;;19.14;45.35
11345;BME280;5727;42.600;23.028;2023-03-25T10:24:48;93131.84;;;19.40;43.80
11345;BME280;5727;42.600;23.028;2023-03-25T10:27:21;93135.00;;;19.65;43.42
11345;BME280;5727;42.600;23.028;2023-03-25T10:29:53;93127.50;;;19.90;42.90
11345;BME280;5727;42.600;23.028;2023-03-25T10:32:29;93127.13;;;20.26;43.31
11345;BME280;5727;42.600;23.028;2023-03-25T10:34:58;93131.91;;;20.38;39.20
11345;BME280;5727;42.600;23.028;2023-03-25T10:37:32;93132.94;;;20.47;38.61
11345;BME280;5727;42.600;23.028;2023-03-25T10:40:12;93122.09;;;20.84;38.89
11345;BME280;5727;42.600;23.028;2023-03-25T10:42:44;93114.94;;;21.08;37.87
11345;BME280;5727;42.600;23.028;2023-03-25T10:45:16;93115.41;;;21.03;37.02
11345;BME280;5727;42.600;23.028;2023-03-25T10:47:44;93116.38;;;21.36;37.47
11345;BME280;5727;42.600;23.028;2023-03-25T10:50:13;93109.03;;;21.43;35.98
11345;BME280;5727;42.600;23.028;2023-03-25T10:52:42;93110.78;;;21.50;35.76
11345;BME280;5727;42.600;23.028;2023-03-25T10:55:20;93108.09;;;21.53;36.55
11345;BME280;5727;42.600;23.028;2023-03-25T10:57:49;93106.00;;;21.41;35.39
11345;BME280;5727;42.600;23.028;2023-03-25T11:00:17;93093.03;;;21.43;35.93
11345;BME280;5727;42.600;23.028;2023-03-25T11:02:45;93094.34;;;21.55;35.50
11345;BME280;5727;42.600;23.028;2023-03-25T11:05:15;93090.41;;;21.63;35.85
11345;BME280;5727;42.600;23.028;2023-03-25T11:07:47;93084.47;;;21.95;35.54
11345;BME280;5727;42.600;23.028;2023-03-25T11:10:17;93080.47;;;22.22;35.88
11345;BME280;5727;42.600;23.028;2023-03-25T11:12:45;93083.53;;;22.21;34.57
11345;BME280;5727;42.600;23.028;2023-03-25T11:15:14;93072.69;;;22.47;35.56
11345;BME280;5727;42.600;23.028;2023-03-25T11:17:42;93075.75;;;22.46;34.69
11345;BME280;5727;42.600;23.028;2023-03-25T11:20:17;93067.50;;;22.76;35.58
11345;BME280;5727;42.600;23.028;2023-03-25T11:22:48;93075.03;;;22.97;34.02
11345;BME280;5727;42.600;23.028;2023-03-25T11:25:19;93067.00;;;22.81;33.27
11345;BME280;5727;42.600;23.028;2023-03-25T11:27:52;93066.06;;;22.71;32.80
11345;BME280;5727;42.600;23.028;2023-03-25T11:30:22;93070.41;;;22.30;33.29
11345;BME280;5727;42.600;23.028;2023-03-25T11:32:56;93066.75;;;22.04;34.43
11345;BME280;5727;42.600;23.028;2023-03-25T11:35:25;93062.25;;;22.01;34.60
11345;BME280;5727;42.600;23.028;2023-03-25T11:37:56;93055.31;;;22.04;34.55
11345;BME280;5727;42.600;23.028;2023-03-25T11:40:23;93052.69;;;21.84;35.30
11345;BME280;5727;42.600;23.028;2023-03-25T11:42:52;93046.50;;;21.67;35.07
11345;BME280;5727;42.600;23.028;2023-03-25T11:45:22;93042.69;;;21.68;35.42
11345;BME280;5727;42.600;23.028;2023-03-25T11:47:50;93047.53;;;21.54;34.91
11345;BME280;5727;42.600;23.028;2023-03-25T11:50:20;93036.44;;;21.36;35.73
11345;BME280;5727;42.600;23.028;2023-03-25T11:52:48;93043.47;;;21.46;35.46
11345;BME280;5727;42.600;23.028;2023-03-25T11:55:22;93039.94;;;21.52;34.74
11345;BME280;5727;42.600;23.028;2023-03-25T11:57:51;93026.97;;;21.74;35.14
11345;BME280;5727;42.600;23.028;2023-03-25T12:00:34;93026.75;;;21.84;34.23
11345;BME280;5727;42.600;23.028;2023-03-25T12:03:03;93028.19;;;22.09;34.75
11345;BME280;5727;42.600;23.028;2023-03-25T12:05:32;93032.22;;;22.33;35.01
11345;BME280;5727;42.600;23.028;2023-03-25T12:08:03;93020.75;;;22.68;34.66
11345;BME280;5727;42.600;23.028;2023-03-25T12:10:40;93017.50;;;22.93;34.65
11345;BME280;5727;42.600;23.028;2023-03-25T12:13:18;93011.59;;;23.30;33.55
11345;BME280;5727;42.600;23.028;2023-03-25T12:15:53;93014.38;;;23.26;33.62
11345;BME280;5727;42.600;23.028;2023-03-25T12:18:37;93015.25;;;22.75;34.80
11345;BME280;5727;42.600;23.028;2023-03-25T12:21:19;93010.41;;;22.70;35.48
11345;BME280;5727;42.600;23.028;2023-03-25T12:23:58;93006.06;;;22.60;34.48
11345;BME280;5727;42.600;23.028;2023-03-25T12:26:38;93010.22;;;22.45;35.47
11345;BME280;5727;42.600;23.028;2023-03-25T12:29:18;93001.16;;;22.23;35.51
11345;BME280;5727;42.600;23.028;2023-03-25T12:31:57;93001.34;;;22.16;35.43
11345;BME280;5727;42.600;23.028;2023-03-25T12:34:34;93002.56;;;22.11;36.21
11345;BME280;5727;42.600;23.028;2023-03-25T12:37:11;93008.44;;;21.87;35.27
11345;BME280;5727;42.600;23.028;2023-03-25T12:39:55;92998.59;;;21.44;36.14
11345;BME280;5727;42.600;23.028;2023-03-25T12:42:38;92988.41;;;21.39;36.90
11345;BME280;5727;42.600;23.028;2023-03-25T12:45:26;92990.19;;;21.26;37.37
11345;BME280;5727;42.600;23.028;2023-03-25T12:47:58;92998.56;;;21.05;37.07
11345;BME280;5727;42.600;23.028;2023-03-25T12:50:41;92998.50;;;20.85;36.53
11345;BME280;5727;42.600;23.028;2023-03-25T12:53:21;92988.06;;;20.48;37.70
11345;BME280;5727;42.600;23.028;2023-03-25T12:56:02;92994.13;;;20.26;38.22
11345;BME280;5727;42.600;23.028;2023-03-25T12:58:50;92990.66;;;20.29;38.18
11345;BME280;5727;42.600;23.028;2023-03-25T13:01:28;92999.25;;;20.09;38.95
11345;BME280;5727;42.600;23.028;2023-03-25T13:04:17;93001.22;;;20.05;39.63
11345;BME280;5727;42.600;23.028;2023-03-25T13:06:51;93014.84;;;20.07;39.86
11345;BME280;5727;42.600;23.028;2023-03-25T13:09:26;93015.50;;;19.88;40.87
11345;BME280;5727;42.600;23.028;2023-03-25T13:11:57;93014.78;;;19.84;41.73
11345;BME280;5727;42.600;23.028;2023-03-25T13:14:30;93023.66;;;19.74;42.43
11345;BME280;5727;42.600;23.028;2023-03-25T13:17:02;93026.44;;;19.30;45.63
11345;BME280;5727;42.600;23.028;2023-03-25T13:19:32;93035.28;;;18.76;47.65
11345;BME280;5727;42.600;23.028;2023-03-25T13:22:07;93040.09;;;18.40;51.14
11345;BME280;5727;42.600;23.028;2023-03-25T13:24:41;93050.06;;;18.18;52.21
11345;BME280;5727;42.600;23.028;2023-03-25T13:27:12;93039.53;;;18.04;55.60